Baker City, OR (97814)

4:55 AM PDT on July 24, 2016 (GMT -0700)
Baker City Municipal | | Change Station

Elev 3373 ft 44.84 °N, 117.81 °W | Updated 2 minutes ago

Clear
Clear
43 °F
Feels Like 43 °F
N
0
Wind Variable Wind from North

Today
High -- | Low -- °F
--% Chance of Precip.
Yesterday
High -- | Low -- °F
Precip. -- in
Pressure 30.09 in
Visibility 10.0 miles
Clouds Clear
Dew Point 39 °F
Humidity 86%
Rainfall 0.00 in
Snow Depth Not available.
5:29 AM 8:25 PM
Waning Gibbous, 77% visible
METAR KBKE 241153Z AUTO 00000KT 10SM CLR 06/04 A3014 RMK AO2 SLP190 T00610039 10133 20056 55004 TSNO
Pressure 30.09 in
Visibility 10.0 miles
Clouds Clear
Dew Point 39 °F
Humidity 86%
Rainfall 0.00 in
Snow Depth Not available.
5:29 AM 8:25 PM
Waning Gibbous, 77% visible
METAR KBKE 241153Z AUTO 00000KT 10SM CLR 06/04 A3014 RMK AO2 SLP190 T00610039 10133 20056 55004 TSNO

10-Day Weather Forecast

Almanac

Astronomy

Jul. 24, 2016 Rise Set
Actual Time
Civil Twilight
Nautical Twilight
Astronomical Twilight
Moon
Length of Visible Light
Length of Day
Tomorrow will be .
, % of the Moon is Illuminated

Today's Extremes

State Highs State Lows

Community

WunderPhotos

Upload Photos

1,927,049 photos uploaded!

WunderBlog® & News

Nearby

Air Quality

  Air Quality AQ Index Pollutant
Not available.

Snow Depth

Station Depth Elevation

Earthquake Activity

City Distance Mag. Time & Date
Minimum magnitude displayed is 2.5.

Coastal Water Temperatures

Place Temperature

Stations

Nearby Weather Stations

Station Location Temp. Windchill Dew Point Humidity Wind Precip. Elev Updated Type
                   

Watches & Warnings

There are currently no watches in effect.